Briefing drone pour Bessines-sur-gartempe

Rechercher une autre localisation

Conditions de vol :


Nous sommes le : Samedi 13 avril 2024
Il est 23:39 UTC (01:39 LT)

Lever de soleil : 04:44 UTC (06:44 LT)
Coucher de soleil : 19:05 UTC (21:05 LT)

Météo

L'essentiel des conditions de vol

VIGILANCE MÉTÉO FRANCE - Haute-Vienne (87)
Pas de vigilances particulieres
CARTE TEMSI
CARTES DES FRONTS
METAR de LFBL
LFBL 122330Z AUTO 06005KT CAVOK 16/07 Q1030 NOSIG

Date d'émission: 12/04/2024
Heure d'émission: 23:30 UTC
Vent: 060° pour 5 KT (9 km/h)
Visibilité horizontale: > 10 km
Plafond : Plafond et visibilité OK (CAVOK)
Température: 16 °C
Point de rosée: 7 °C
Humidité: 55%
Pression (QNH): 1030 hPa
Conditions: Pas de changement dans les 2 heures (NOSIG)
TAF de LFBL
LFBL 121700Z 1218/1318 32005KT CAVOK

Conditions prévues :

Heure d'émission : Bulletin éffectué le 12 à 18:00 UTC
Prévision : Valide du 12 a 18:00 UTC au 13 a 18:00 UTC
Vent : 320° pour 5 KT (9 km/h)
Visibilité : > 10 km
WEBCAM POUR BESSINES-SUR-GARTEMPE

Réglementation

Voler en sécurité

CARTES AERONAUTIQUE 1/500.000
CARTE AZBA (Reseau basse altitude)
CARTES VAC (LFBL)
SUP AIP




Chargement des AIP...
NOTAM (BESSINES-SUR-GARTEMPE + Terrain à proximité / FIR )




Chargement des NOTAMS...
CONTACT PREFECTURE 87
Haute-Vienne (87) : [email protected]


Avertissement : Les données mises à disposition sont indicatives. Oxygène Drone ne pourra être tenu responsable de dégâts causés aux biens et aux personnes.